Terminal Aerodrome Forecast
Issued by NWS

Home | Current Version | Previous Version | Text Only | Print | Product List | Glossary On
Versions: 1 2 3 4 5 6 7 8 9 10 11 12 13 14 15 16 17 18 19 20 21 22 23 24 25 26 27 28
000
FTUS46 KSGX 030520
TAFSAN
TAF
KSAN 030520Z 0306/0412 25006KT P6SM SCT018 BKN200
     FM030700 25004KT P6SM BKN018
     FM031700 VRB05KT P6SM SCT023 SCT150
     FM031900 28009KT P6SM FEW025 SCT150
     FM040300 25004KT P6SM BKN022=

USA.gov is the U.S. government's official web portal to all federal, state and local government web resources and services.